Terminal Aerodrome Forecast
Issued by NWS Boston, MA

Home | Current Version | Previous Version | Text Only | Print | Product List | Glossary On
Versions: 1 2 3 4 5 6 7 8 9 10 11 12 13 14 15 16 17 18 19 20 21 22 23 24 25 26 27 28 29 30 31 32 33 34 35 36 37 38 39 40 41 42 43 44 45 46
000
FTUS41 KBOX 011138
TAFPVD
TAF
KPVD 011138Z 0112/0212 24008KT P6SM FEW200
     FM011500 29007KT P6SM BKN120
     FM011900 30007KT P6SM BKN100
     FM020300 36004KT P6SM OVC070
     FM020500 02005KT 3SM -SN OVC060
     FM020700 03007KT 1SM -SN OVC025
     FM020800 03007KT 1/2SM SN OVC025=

USA.gov is the U.S. government's official web portal to all federal, state and local government web resources and services.